Terminal Aerodrome Forecast
Issued by NWS Cleveland, OH

Home | Current Version | Previous Version | Text Only | Print | Product List | Glossary Off
Versions: 1 2 3 4 5 6 7 8 9 10 11 12 13 14 15 16

000
FTUS41 KCLE 221625 AAA
TAFCAK
TAF AMD
KCAK 221625Z 2216/2312 36006KT P6SM BKN030
     FM222300 32006KT P6SM SCT035
     FM230200 VRB03KT P6SM SKC=

USA.gov is the U.S. government's official web portal to all federal, state and local government web resources and services.